Time;durP1;ratioP1;P1;durP2;ratioP2;P2;SDS_P1;SDS_P2;PMS_P1;PMS_P2;Temp;Humidity;BMP_temperature;BMP_pressure;BME280_temperature;BME280_humidity;BME280_pressure;Samples;Min_cycle;Max_cycle;Signal;HPM_P1;HPM_P2
2021/03/06 00:00:24;;;;;;;2.25;1.90;;;5.70;71.40;;;;;;4989898;28;20044;-82
2021/03/06 00:02:51;;;;;;;3.35;1.90;;;5.70;71.40;;;;;;4992162;28;20089;-81
2021/03/06 00:05:21;;;;;;;2.80;1.95;;;5.70;71.40;;;;;;4991273;28;20041;-81
2021/03/06 00:07:47;;;;;;;2.45;1.90;;;5.70;71.40;;;;;;4979330;28;20034;-82
2021/03/06 00:10:14;;;;;;;2.58;1.80;;;5.60;71.40;;;;;;4994588;28;20065;-82
2021/03/06 00:12:42;;;;;;;2.10;1.85;;;5.60;71.40;;;;;;4976373;28;20031;-82
2021/03/06 00:15:10;;;;;;;2.65;2.00;;;5.60;71.40;;;;;;4995255;28;20085;-82
2021/03/06 00:17:37;;;;;;;3.20;1.83;;;5.60;71.40;;;;;;4996226;28;20031;-81
2021/03/06 00:20:07;;;;;;;1.77;1.67;;;5.60;71.40;;;;;;4976738;28;20062;-81
2021/03/06 00:22:33;;;;;;;2.20;1.75;;;5.60;71.50;;;;;;4979974;28;20121;-82
2021/03/06 00:24:59;;;;;;;2.33;1.85;;;5.50;71.40;;;;;;4974197;28;20033;-81
2021/03/06 00:27:25;;;;;;;2.78;1.65;;;5.50;71.40;;;;;;4976485;28;20107;-82
2021/03/06 00:29:51;;;;;;;2.22;1.98;;;5.50;71.50;;;;;;4972176;28;20434;-82
2021/03/06 00:32:17;;;;;;;2.63;1.70;;;5.50;71.40;;;;;;4996531;28;20037;-82
2021/03/06 00:34:43;;;;;;;3.08;1.77;;;5.50;71.50;;;;;;4995016;28;20023;-82
2021/03/06 00:37:09;;;;;;;2.95;2.05;;;5.50;71.50;;;;;;4947183;28;20068;-81
2021/03/06 00:39:35;;;;;;;2.75;1.95;;;5.50;71.50;;;;;;4978083;28;20027;-81
2021/03/06 00:42:01;;;;;;;2.55;1.92;;;5.50;71.50;;;;;;4994964;28;20582;-82
2021/03/06 00:44:26;;;;;;;2.33;1.88;;;5.40;71.50;;;;;;4978575;28;20030;-82
2021/03/06 00:46:52;;;;;;;3.70;1.80;;;5.40;71.50;;;;;;4962992;28;20481;-81
2021/03/06 00:49:19;;;;;;;1.85;1.60;;;5.30;71.40;;;;;;4994266;28;20038;-81
2021/03/06 00:51:45;;;;;;;2.22;1.80;;;5.40;71.50;;;;;;4993386;28;20478;-82
2021/03/06 00:54:17;;;;;;;3.90;2.22;;;5.30;71.40;;;;;;4977408;28;20045;-81
2021/03/06 00:56:43;;;;;;;3.35;1.95;;;5.40;71.50;;;;;;4977079;28;20029;-81
2021/03/06 00:59:09;;;;;;;3.97;2.10;;;5.30;71.50;;;;;;4978424;28;20038;-81
2021/03/06 01:01:35;;;;;;;2.08;1.88;;;5.30;71.50;;;;;;4977989;28;20471;-82
2021/03/06 01:04:00;;;;;;;2.78;1.60;;;5.30;71.50;;;;;;4946797;28;20444;-81
2021/03/06 01:06:26;;;;;;;2.75;2.28;;;5.30;71.50;;;;;;4955490;28;20296;-82
2021/03/06 01:08:52;;;;;;;2.08;1.73;;;5.20;71.50;;;;;;4965922;28;20097;-82
2021/03/06 01:11:18;;;;;;;2.08;1.85;;;5.20;71.50;;;;;;4986116;28;20053;-82
2021/03/06 01:13:43;;;;;;;2.30;2.08;;;5.20;71.50;;;;;;4961204;28;20153;-82
2021/03/06 01:16:09;;;;;;;2.70;1.90;;;5.20;71.50;;;;;;4974646;28;20034;-81
2021/03/06 01:18:35;;;;;;;2.22;2.03;;;5.10;71.40;;;;;;4991863;28;20100;-82
2021/03/06 01:21:01;;;;;;;2.60;1.70;;;5.10;71.40;;;;;;4978342;28;20038;-82
2021/03/06 01:23:26;;;;;;;2.58;1.67;;;5.10;71.50;;;;;;4981029;28;20042;-82
2021/03/06 01:25:52;;;;;;;3.90;1.88;;;5.10;71.50;;;;;;4994996;28;20387;-82
2021/03/06 01:28:18;;;;;;;2.63;1.85;;;5.10;71.40;;;;;;4961909;28;20173;-82
2021/03/06 01:30:44;;;;;;;2.85;1.83;;;5.00;71.40;;;;;;4994033;28;20034;-82
2021/03/06 01:33:09;;;;;;;2.50;1.80;;;5.00;71.40;;;;;;4995062;28;20086;-81
2021/03/06 01:35:35;;;;;;;2.10;1.90;;;5.00;71.40;;;;;;4993812;28;20027;-82
2021/03/06 01:38:01;;;;;;;2.47;1.90;;;5.00;71.40;;;;;;4988875;28;20038;-81
2021/03/06 01:40:30;;;;;;;2.00;1.80;;;5.00;71.50;;;;;;4992072;28;20479;-82
2021/03/06 01:42:56;;;;;;;2.95;2.10;;;5.00;71.50;;;;;;4994886;28;20030;-82
2021/03/06 01:45:22;;;;;;;3.83;1.92;;;4.90;71.40;;;;;;4993447;28;20030;-81
2021/03/06 01:47:48;;;;;;;2.42;2.05;;;4.90;71.40;;;;;;4961995;28;20046;-81
2021/03/06 01:50:28;;;;;;;1.75;1.60;;;4.90;71.40;;;;;;4994170;28;20109;-81
2021/03/06 01:52:55;;;;;;;2.00;1.80;;;4.90;71.50;;;;;;4980270;28;20081;-81
2021/03/06 01:55:25;;;;;;;2.38;1.70;;;4.90;71.50;;;;;;4974417;28;20468;-81
2021/03/06 01:57:52;;;;;;;2.83;2.00;;;4.80;71.40;;;;;;4990050;28;20383;-82
2021/03/06 02:00:21;;;;;;;1.73;1.52;;;4.80;71.40;;;;;;4988983;28;20026;-81
2021/03/06 02:02:49;;;;;;;3.13;2.00;;;4.80;71.50;;;;;;4992967;28;20092;-82
2021/03/06 02:05:15;;;;;;;2.42;1.83;;;4.70;71.50;;;;;;4993310;28;20062;-81
2021/03/06 02:07:41;;;;;;;2.38;1.95;;;4.70;71.40;;;;;;4993994;28;20550;-81
2021/03/06 02:10:08;;;;;;;2.08;1.83;;;4.70;71.50;;;;;;4993015;28;20058;-82
2021/03/06 02:12:55;;;;;;;2.28;1.92;;;4.70;71.50;;;;;;4992978;28;20057;-82
2021/03/06 02:15:37;;;;;;;3.42;1.92;;;4.70;71.60;;;;;;4993125;28;20026;-82
2021/03/06 02:18:28;;;;;;;2.22;2.05;;;4.60;71.50;;;;;;4992400;28;20043;-81
2021/03/06 02:21:26;;;;;;;1.85;1.73;;;4.60;71.50;;;;;;4989533;28;20799;-82
2021/03/06 02:24:30;;;;;;;2.05;1.90;;;4.60;71.60;;;;;;4991175;28;20057;-82
2021/03/06 02:27:14;;;;;;;2.03;1.83;;;4.50;71.60;;;;;;4983927;28;20019;-82
2021/03/06 02:29:45;;;;;;;2.63;1.90;;;4.50;71.60;;;;;;4992311;28;20084;-81
2021/03/06 02:32:13;;;;;;;2.28;1.85;;;4.50;71.60;;;;;;4988893;28;20046;-81
2021/03/06 02:34:43;;;;;;;2.13;1.80;;;4.40;71.60;;;;;;4992538;28;20030;-81
2021/03/06 02:37:11;;;;;;;1.98;1.80;;;4.40;71.60;;;;;;4968145;28;20030;-82
2021/03/06 02:39:42;;;;;;;2.72;1.85;;;4.40;71.60;;;;;;4986618;28;20034;-82
2021/03/06 02:42:11;;;;;;;1.75;1.65;;;4.40;71.70;;;;;;4983308;28;20035;-82
2021/03/06 02:44:37;;;;;;;1.67;1.58;;;4.40;71.60;;;;;;4960285;28;20027;-81
2021/03/06 02:47:04;;;;;;;2.13;1.90;;;4.40;71.60;;;;;;4973316;28;20031;-81
2021/03/06 02:49:30;;;;;;;2.30;1.80;;;4.30;71.60;;;;;;4972746;28;20501;-82
2021/03/06 02:51:55;;;;;;;3.03;1.92;;;4.30;71.60;;;;;;4976695;28;20140;-82
2021/03/06 02:54:21;;;;;;;2.25;1.85;;;4.30;72.20;;;;;;4973965;28;20078;-81
2021/03/06 02:56:47;;;;;;;3.50;1.95;;;4.30;71.60;;;;;;4982811;28;20041;-81
2021/03/06 02:59:48;;;;;;;2.50;1.88;;;4.20;71.50;;;;;;4993407;28;20038;-82
2021/03/06 03:02:40;;;;;;;1.70;1.60;;;4.20;71.70;;;;;;4990976;28;20046;-81
2021/03/06 03:05:08;;;;;;;3.75;2.10;;;4.20;71.60;;;;;;4993499;28;20097;-81
2021/03/06 03:07:57;;;;;;;3.05;1.77;;;4.20;71.60;;;;;;4984534;28;20043;-81
2021/03/06 03:10:23;;;;;;;1.77;1.65;;;4.20;71.60;;;;;;4980343;28;20083;-81
2021/03/06 03:13:10;;;;;;;1.98;1.80;;;4.20;71.60;;;;;;4992958;28;20062;-81
2021/03/06 03:15:43;;;;;;;1.92;1.80;;;4.10;71.70;;;;;;4991319;28;20046;-81
2021/03/06 03:18:18;;;;;;;2.40;1.70;;;4.10;71.80;;;;;;4988481;28;20026;-81
2021/03/06 03:20:53;;;;;;;2.40;1.83;;;4.10;71.60;;;;;;4977850;28;20343;-81
2021/03/06 03:23:20;;;;;;;2.70;1.92;;;4.10;71.60;;;;;;4984416;28;20026;-82
2021/03/06 03:25:47;;;;;;;1.83;1.73;;;4.00;71.50;;;;;;4982341;28;20074;-81
2021/03/06 03:28:14;;;;;;;2.33;1.90;;;4.00;71.60;;;;;;4976516;28;20022;-81
2021/03/06 03:30:41;;;;;;;1.95;1.60;;;4.00;71.60;;;;;;4975472;28;20027;-81
2021/03/06 03:33:13;;;;;;;3.28;2.10;;;4.00;71.60;;;;;;4991928;28;20034;-81
2021/03/06 03:35:42;;;;;;;2.47;1.95;;;4.00;71.60;;;;;;4992141;28;20038;-81
2021/03/06 03:38:09;;;;;;;1.90;1.80;;;3.90;71.60;;;;;;4974557;28;20027;-81
2021/03/06 03:40:36;;;;;;;2.20;1.95;;;3.90;71.60;;;;;;4975675;28;20038;-81
2021/03/06 03:43:03;;;;;;;2.78;1.85;;;3.90;71.60;;;;;;4995346;28;20129;-81
2021/03/06 03:45:30;;;;;;;2.30;1.90;;;3.90;71.60;;;;;;4989242;28;20061;-80
2021/03/06 03:47:57;;;;;;;2.63;2.00;;;3.90;71.60;;;;;;4964028;28;20030;-81
2021/03/06 03:50:22;;;;;;;1.92;1.65;;;3.80;71.60;;;;;;4979256;28;20026;-81
2021/03/06 03:52:50;;;;;;;1.75;1.63;;;3.80;71.60;;;;;;4995918;28;20030;-81
2021/03/06 03:55:17;;;;;;;2.42;1.90;;;3.80;71.60;;;;;;4994811;28;20105;-81
2021/03/06 03:57:48;;;;;;;2.08;1.85;;;3.80;71.60;;;;;;4994301;28;20411;-81
2021/03/06 04:00:20;;;;;;;2.78;1.88;;;3.80;71.60;;;;;;4995750;28;20383;-81
2021/03/06 04:02:46;;;;;;;2.50;2.00;;;3.80;71.60;;;;;;4996866;28;20030;-81
2021/03/06 04:05:13;;;;;;;2.20;2.00;;;3.70;71.60;;;;;;4995780;28;20034;-81
2021/03/06 04:07:51;;;;;;;2.08;1.88;;;3.70;71.60;;;;;;4996580;28;20364;-81
2021/03/06 04:10:19;;;;;;;3.30;1.88;;;3.70;71.60;;;;;;4989334;28;20052;-81
2021/03/06 04:12:46;;;;;;;2.40;2.13;;;3.70;71.60;;;;;;4995940;28;20031;-80
2021/03/06 04:15:15;;;;;;;2.80;2.10;;;3.70;71.60;;;;;;4988018;28;20042;-81
2021/03/06 04:17:41;;;;;;;2.55;2.15;;;3.70;71.60;;;;;;4979166;28;20018;-80
2021/03/06 04:20:09;;;;;;;2.15;1.90;;;3.60;71.50;;;;;;4979085;28;20049;-81
2021/03/06 04:22:35;;;;;;;3.45;2.00;;;3.60;71.60;;;;;;4978639;28;20034;-81
2021/03/06 04:25:01;;;;;;;3.10;1.90;;;3.60;71.60;;;;;;4995217;28;20479;-81
2021/03/06 04:27:27;;;;;;;2.08;1.92;;;3.60;71.60;;;;;;4978285;28;20045;-81
2021/03/06 04:29:52;;;;;;;2.40;2.05;;;3.60;71.60;;;;;;4995303;28;20040;-81
2021/03/06 04:32:18;;;;;;;2.03;1.83;;;3.60;71.60;;;;;;4974832;28;20026;-81
2021/03/06 04:34:44;;;;;;;2.33;2.03;;;3.50;71.60;;;;;;4994890;28;20030;-81
2021/03/06 04:37:10;;;;;;;3.00;2.00;;;3.50;71.60;;;;;;4978176;28;20030;-82
2021/03/06 04:39:36;;;;;;;2.33;2.00;;;3.50;71.60;;;;;;4994293;28;20375;-81
2021/03/06 04:42:02;;;;;;;3.22;2.38;;;3.50;71.60;;;;;;4978433;28;20100;-81
2021/03/06 04:44:28;;;;;;;2.33;2.13;;;3.40;71.60;;;;;;4994567;28;20033;-81
2021/03/06 04:46:53;;;;;;;3.08;2.38;;;3.40;71.60;;;;;;4975452;28;20031;-81
2021/03/06 04:49:19;;;;;;;3.03;2.00;;;3.40;71.60;;;;;;4981774;28;20030;-80
2021/03/06 04:51:45;;;;;;;4.15;2.10;;;3.40;71.60;;;;;;4980529;28;20031;-80
2021/03/06 04:54:11;;;;;;;2.90;2.20;;;3.40;71.60;;;;;;4992976;28;20487;-80
2021/03/06 04:56:37;;;;;;;2.97;2.00;;;3.40;71.60;;;;;;4959977;28;20043;-81
2021/03/06 04:59:03;;;;;;;2.88;2.00;;;3.40;71.60;;;;;;4994299;28;20376;-81
2021/03/06 05:01:28;;;;;;;3.33;2.38;;;3.30;71.60;;;;;;4994512;28;20041;-81
2021/03/06 05:03:54;;;;;;;3.30;2.25;;;3.30;71.60;;;;;;4995092;28;20030;-81
2021/03/06 05:06:20;;;;;;;3.17;2.10;;;3.30;71.60;;;;;;4994819;28;20038;-81
2021/03/06 05:08:45;;;;;;;2.65;2.42;;;3.30;71.60;;;;;;4977069;28;20038;-80
2021/03/06 05:11:11;;;;;;;2.95;2.30;;;3.30;71.60;;;;;;4977772;28;20138;-81
2021/03/06 05:13:37;;;;;;;2.83;2.25;;;3.20;71.60;;;;;;4993386;28;20089;-80
2021/03/06 05:16:04;;;;;;;3.22;2.10;;;3.20;72.20;;;;;;4994455;28;20030;-81
2021/03/06 05:18:30;;;;;;;2.97;2.30;;;3.20;71.60;;;;;;4993837;28;20095;-81
2021/03/06 05:20:57;;;;;;;2.33;2.10;;;3.20;71.60;;;;;;4984800;28;20175;-81
2021/03/06 05:23:22;;;;;;;3.60;2.13;;;3.20;71.60;;;;;;4994796;28;20117;-81
2021/03/06 05:25:48;;;;;;;2.35;2.05;;;3.20;71.60;;;;;;4993004;28;20113;-80
2021/03/06 05:28:32;;;;;;;3.40;2.22;;;3.10;71.60;;;;;;4994596;28;20463;-81
2021/03/06 05:30:58;;;;;;;2.13;1.92;;;3.20;71.70;;;;;;4992379;28;20092;-81
2021/03/06 05:33:24;;;;;;;2.22;1.92;;;3.10;71.50;;;;;;4958136;28;20034;-81
2021/03/06 05:35:49;;;;;;;2.80;2.10;;;3.10;71.60;;;;;;4993197;28;20069;-80
2021/03/06 05:38:15;;;;;;;3.17;2.30;;;3.10;71.60;;;;;;4960869;28;21744;-80
2021/03/06 05:40:44;;;;;;;2.22;1.90;;;3.10;71.60;;;;;;4992077;28;20037;-81
2021/03/06 05:43:10;;;;;;;3.65;2.35;;;3.00;71.60;;;;;;4992943;28;20080;-80
2021/03/06 05:45:36;;;;;;;2.42;2.17;;;3.10;71.70;;;;;;4974023;28;20122;-81
2021/03/06 05:48:02;;;;;;;2.63;2.08;;;3.00;71.60;;;;;;4974991;28;20035;-80
2021/03/06 05:50:30;;;;;;;2.95;2.10;;;3.00;71.60;;;;;;4983215;28;20553;-79
2021/03/06 05:52:57;;;;;;;3.20;2.38;;;3.00;71.60;;;;;;4993113;28;20033;-80
2021/03/06 05:55:25;;;;;;;2.30;2.10;;;3.00;71.70;;;;;;4992628;28;20479;-80
2021/03/06 05:57:53;;;;;;;3.15;2.33;;;2.90;71.70;;;;;;4971825;28;20031;-79
2021/03/06 06:00:19;;;;;;;2.67;2.10;;;2.90;71.70;;;;;;4974669;28;20070;-80
2021/03/06 06:02:45;;;;;;;2.58;2.30;;;2.90;71.70;;;;;;4982600;28;20034;-79
2021/03/06 06:05:11;;;;;;;2.72;2.20;;;2.90;71.60;;;;;;4960773;28;20031;-80
2021/03/06 06:07:39;;;;;;;2.80;2.30;;;2.90;71.60;;;;;;4975114;28;20498;-80
2021/03/06 06:10:06;;;;;;;2.38;2.17;;;2.80;71.60;;;;;;4970324;28;20067;-80
2021/03/06 06:12:32;;;;;;;3.50;2.25;;;2.90;71.70;;;;;;4976701;28;20037;-79
2021/03/06 06:14:58;;;;;;;4.15;2.30;;;2.90;71.70;;;;;;4992075;28;20045;-80
2021/03/06 06:17:24;;;;;;;2.38;1.92;;;2.80;72.00;;;;;;4982382;28;20026;-79
2021/03/06 06:19:50;;;;;;;4.63;2.50;;;2.80;71.60;;;;;;4991889;28;20038;-79
2021/03/06 06:22:20;;;;;;;2.35;2.10;;;2.80;71.60;;;;;;4990737;28;20041;-79
2021/03/06 06:24:47;;;;;;;2.35;2.10;;;2.80;71.60;;;;;;4988111;28;20071;-80
2021/03/06 06:27:33;;;;;;;2.47;2.08;;;2.80;71.60;;;;;;4992627;28;20026;-79
2021/03/06 06:30:13;;;;;;;3.20;2.22;;;2.80;71.70;;;;;;4975455;28;20073;-80
2021/03/06 06:32:46;;;;;;;3.05;2.28;;;2.80;71.60;;;;;;4992017;28;20088;-79
2021/03/06 06:35:14;;;;;;;2.90;2.30;;;2.80;71.60;;;;;;4973264;28;20030;-79
2021/03/06 06:37:53;;;;;;;3.30;2.28;;;2.70;71.60;;;;;;4991765;28;20073;-79
2021/03/06 06:40:24;;;;;;;2.95;2.20;;;2.80;71.60;;;;;;4973219;28;20031;-79
2021/03/06 06:42:50;;;;;;;2.65;2.28;;;2.70;71.60;;;;;;4982924;28;20487;-79
2021/03/06 06:45:16;;;;;;;2.55;2.25;;;2.70;71.60;;;;;;4986029;28;20073;-79
2021/03/06 06:47:46;;;;;;;2.80;2.40;;;2.70;71.60;;;;;;4975704;28;20027;-79
2021/03/06 06:50:13;;;;;;;3.03;2.38;;;2.70;71.60;;;;;;4991306;28;20034;-80
2021/03/06 06:52:44;;;;;;;3.72;2.53;;;2.70;72.20;;;;;;4958182;28;20122;-80
2021/03/06 06:55:14;;;;;;;2.83;2.17;;;2.70;71.60;;;;;;4975172;28;20022;-80
2021/03/06 06:57:48;;;;;;;3.45;2.50;;;2.70;72.20;;;;;;4976026;28;20117;-79
2021/03/06 07:00:15;;;;;;;3.08;2.40;;;2.70;71.60;;;;;;4991141;28;20036;-79
2021/03/06 07:02:52;;;;;;;3.92;2.67;;;2.70;71.60;;;;;;4975557;28;20027;-79
2021/03/06 07:05:39;;;;;;;4.30;2.40;;;2.70;71.60;;;;;;4974332;28;20081;-79
2021/03/06 07:08:07;;;;;;;3.70;2.70;;;2.70;72.30;;;;;;4972689;28;20847;-80
2021/03/06 07:10:41;;;;;;;2.47;2.17;;;2.70;71.60;;;;;;4990888;28;20056;-80
2021/03/06 07:13:11;;;;;;;2.83;2.50;;;2.70;71.60;;;;;;4958624;28;20026;-80
2021/03/06 07:15:39;;;;;;;3.03;2.20;;;2.70;71.60;;;;;;4990328;28;20279;-80
2021/03/06 07:18:15;;;;;;;2.70;2.10;;;2.70;71.70;;;;;;4974260;28;20746;-80
2021/03/06 07:20:43;;;;;;;3.60;2.53;;;2.70;71.70;;;;;;4987797;28;20035;-80
2021/03/06 07:23:18;;;;;;;3.45;2.42;;;2.70;71.70;;;;;;4978130;28;20015;-80
2021/03/06 07:25:44;;;;;;;3.28;2.40;;;2.70;71.70;;;;;;4990519;28;20022;-79
2021/03/06 07:28:10;;;;;;;2.72;2.08;;;2.70;71.70;;;;;;4974506;28;20096;-80
2021/03/06 07:30:37;;;;;;;2.83;2.30;;;2.70;71.70;;;;;;4943043;28;20109;-79
2021/03/06 07:33:07;;;;;;;4.35;2.50;;;2.70;71.80;;;;;;4990760;28;20030;-80
2021/03/06 07:35:37;;;;;;;3.83;2.42;;;2.70;71.80;;;;;;4990167;28;20498;-80
2021/03/06 07:38:06;;;;;;;3.45;2.40;;;2.70;71.90;;;;;;4989129;28;20456;-80
2021/03/06 07:40:37;;;;;;;3.40;2.35;;;2.60;71.80;;;;;;4991969;28;20109;-80
2021/03/06 07:43:22;;;;;;;3.45;2.40;;;2.70;71.90;;;;;;4991770;28;20078;-80
2021/03/06 07:45:51;;;;;;;3.13;2.25;;;2.70;71.90;;;;;;4990073;28;20105;-80
2021/03/06 07:48:19;;;;;;;3.45;2.42;;;2.60;71.80;;;;;;4990665;28;20097;-81
2021/03/06 07:50:47;;;;;;;3.13;2.33;;;2.70;71.90;;;;;;4963962;28;20022;-81
2021/03/06 07:53:18;;;;;;;3.78;2.53;;;2.60;71.90;;;;;;4979038;28;20116;-82
2021/03/06 07:55:44;;;;;;;3.00;2.10;;;2.60;72.00;;;;;;4989912;28;20118;-82
2021/03/06 07:58:11;;;;;;;2.65;2.40;;;2.70;72.00;;;;;;4990516;28;20045;-81
2021/03/06 08:00:40;;;;;;;3.58;2.50;;;2.70;72.00;;;;;;4974175;28;20125;-82
2021/03/06 08:03:30;;;;;;;2.92;2.40;;;2.70;72.00;;;;;;4992060;28;20030;-81
2021/03/06 08:06:00;;;;;;;4.15;2.42;;;2.70;72.10;;;;;;4982310;28;20038;-82
2021/03/06 08:08:32;;;;;;;4.05;2.75;;;2.70;72.10;;;;;;4980304;28;20034;-82
2021/03/06 08:11:11;;;;;;;5.63;2.38;;;2.70;72.10;;;;;;4991789;28;20438;-82
2021/03/06 08:13:49;;;;;;;3.80;2.40;;;2.70;72.10;;;;;;4975691;28;20535;-82
2021/03/06 08:16:23;;;;;;;3.55;2.50;;;2.70;72.10;;;;;;4976321;28;20129;-82
2021/03/06 08:18:58;;;;;;;4.13;2.40;;;2.70;72.10;;;;;;4971552;28;20050;-82
2021/03/06 08:21:37;;;;;;;3.92;2.50;;;2.70;72.20;;;;;;4990933;28;20026;-81
2021/03/06 08:24:15;;;;;;;4.00;3.00;;;2.70;72.20;;;;;;4992545;28;20113;-84
2021/03/06 08:26:42;;;;;;;3.75;2.50;;;2.70;72.30;;;;;;4981024;28;20040;-83
2021/03/06 08:29:26;;;;;;;3.15;2.42;;;2.70;72.30;;;;;;4992889;28;20045;-83
2021/03/06 08:32:01;;;;;;;3.28;2.30;;;2.80;72.40;;;;;;4992406;28;20110;-81
2021/03/06 08:34:31;;;;;;;3.35;2.30;;;2.80;72.40;;;;;;4993621;28;20022;-84
2021/03/06 08:37:21;;;;;;;4.18;3.45;;;2.80;72.40;;;;;;4989249;28;20034;-83
2021/03/06 08:39:47;;;;;;;3.95;2.55;;;2.80;72.50;;;;;;4978280;28;20108;-84
2021/03/06 08:42:34;;;;;;;3.92;2.28;;;2.80;72.40;;;;;;4997181;28;20486;-85
2021/03/06 08:45:06;;;;;;;3.20;2.03;;;2.80;72.50;;;;;;4994653;28;20121;-84
2021/03/06 08:47:37;;;;;;;3.42;2.47;;;2.90;72.50;;;;;;4994572;28;20022;-83
2021/03/06 08:50:09;;;;;;;4.13;2.30;;;2.90;72.50;;;;;;4990184;28;20042;-81
2021/03/06 08:52:35;;;;;;;3.85;2.13;;;2.90;72.60;;;;;;4968564;28;20062;-89
2021/03/06 08:55:03;;;;;;;2.53;2.33;;;2.90;72.60;;;;;;4977463;28;20467;-83
2021/03/06 08:57:32;;;;;;;3.03;2.00;;;3.00;72.70;;;;;;4979340;28;20058;-84
2021/03/06 09:00:00;;;;;;;3.35;2.40;;;3.00;73.30;;;;;;4994807;28;20088;-84
2021/03/06 09:02:31;;;;;;;3.47;2.13;;;3.00;72.70;;;;;;4994044;28;20501;-83
2021/03/06 09:05:05;;;;;;;2.60;2.10;;;3.00;72.70;;;;;;4992168;28;20030;-83
2021/03/06 09:07:32;;;;;;;3.20;2.15;;;3.10;72.80;;;;;;4989196;28;20030;-83
2021/03/06 09:10:18;;;;;;;2.83;2.33;;;3.10;72.80;;;;;;4975458;28;20062;-83
2021/03/06 09:12:46;;;;;;;2.85;2.30;;;3.20;72.90;;;;;;4976136;28;20462;-84
2021/03/06 09:15:23;;;;;;;3.08;2.25;;;3.20;72.80;;;;;;4974911;28;20030;-84
2021/03/06 09:17:49;;;;;;;3.35;2.03;;;3.20;72.80;;;;;;4981486;28;20030;-84
2021/03/06 09:20:15;;;;;;;1.90;1.80;;;3.20;72.80;;;;;;4991940;28;20047;-84
2021/03/06 09:22:42;;;;;;;3.80;2.47;;;3.30;72.90;;;;;;4987093;28;20034;-84
2021/03/06 09:25:08;;;;;;;3.08;2.33;;;3.30;72.90;;;;;;4938183;28;20065;-87
2021/03/06 09:27:46;;;;;;;3.67;2.35;;;3.40;73.00;;;;;;4989275;28;20101;-80
2021/03/06 09:30:33;;;;;;;4.00;2.40;;;3.40;73.10;;;;;;4973525;28;20533;-86
2021/03/06 09:32:59;;;;;;;4.20;2.22;;;3.50;73.10;;;;;;4990155;28;20092;-82
2021/03/06 09:35:27;;;;;;;3.13;2.08;;;3.50;72.90;;;;;;4968462;28;20894;-85
2021/03/06 09:38:11;;;;;;;2.67;1.95;;;3.60;73.00;;;;;;4990164;28;20053;-81
2021/03/06 09:40:45;;;;;;;2.45;2.08;;;3.60;73.50;;;;;;4992405;28;20522;-84
2021/03/06 09:43:13;;;;;;;2.28;1.88;;;3.70;73.30;;;;;;4991256;28;20022;-85
2021/03/06 09:45:39;;;;;;;4.07;2.08;;;3.80;73.20;;;;;;4990949;28;20068;-82
2021/03/06 09:48:12;;;;;;;3.95;1.70;;;3.80;73.10;;;;;;4976959;28;20158;-85
2021/03/06 09:50:39;;;;;;;2.90;2.05;;;3.90;73.10;;;;;;4966561;28;20046;-84
2021/03/06 09:53:22;;;;;;;1.60;1.50;;;4.00;73.10;;;;;;4974003;28;20523;-82
2021/03/06 09:56:11;;;;;;;2.90;2.00;;;4.00;73.10;;;;;;4990432;28;20089;-83
2021/03/06 09:58:40;;;;;;;3.17;1.73;;;4.10;73.10;;;;;;4992904;28;20458;-82
2021/03/06 10:01:15;;;;;;;2.15;1.77;;;4.20;72.90;;;;;;4977450;28;20479;-81
2021/03/06 10:03:42;;;;;;;1.95;1.85;;;4.20;72.90;;;;;;4993208;28;20113;-81
2021/03/06 10:06:10;;;;;;;2.35;1.70;;;4.30;72.90;;;;;;4992879;28;20027;-81
2021/03/06 10:08:57;;;;;;;3.03;1.98;;;4.30;72.90;;;;;;4993875;28;20035;-82
2021/03/06 10:11:40;;;;;;;2.70;1.90;;;4.40;73.00;;;;;;4975512;28;20110;-82
2021/03/06 10:14:07;;;;;;;2.50;1.63;;;4.50;72.90;;;;;;4960719;28;20108;-83
2021/03/06 10:16:52;;;;;;;2.47;1.83;;;4.50;72.80;;;;;;4989837;28;20084;-83
2021/03/06 10:19:22;;;;;;;3.00;1.60;;;4.60;73.00;;;;;;4991025;28;20034;-83
2021/03/06 10:22:03;;;;;;;2.20;1.77;;;4.60;72.80;;;;;;4976942;28;20467;-86
2021/03/06 10:24:49;;;;;;;2.67;1.90;;;4.70;72.90;;;;;;4989686;28;20090;-86
2021/03/06 10:27:15;;;;;;;4.35;1.90;;;4.70;72.90;;;;;;4979908;28;20031;-88
2021/03/06 10:29:41;;;;;;;2.75;1.80;;;4.80;72.90;;;;;;4971034;28;20031;-86
2021/03/06 10:32:07;;;;;;;2.40;1.75;;;4.90;73.00;;;;;;4993250;28;20089;-85
2021/03/06 10:34:35;;;;;;;3.08;1.70;;;4.90;73.00;;;;;;4991651;28;20026;-82
2021/03/06 10:37:05;;;;;;;2.67;1.60;;;4.90;73.00;;;;;;4993578;28;20041;-82
2021/03/06 10:39:31;;;;;;;2.22;1.70;;;5.00;73.10;;;;;;4974665;28;20058;-83
2021/03/06 10:41:58;;;;;;;1.95;1.73;;;5.00;73.10;;;;;;4962872;28;20073;-81
2021/03/06 10:44:24;;;;;;;2.78;1.73;;;5.10;73.20;;;;;;4977229;28;20062;-83
2021/03/06 10:47:00;;;;;;;2.05;1.60;;;5.10;73.10;;;;;;4976389;28;20065;-83
2021/03/06 10:49:43;;;;;;;4.25;1.75;;;5.20;73.40;;;;;;4992003;28;20041;-83
2021/03/06 10:52:26;;;;;;;1.73;1.60;;;5.20;73.30;;;;;;4984590;28;20023;-84
2021/03/06 10:54:55;;;;;;;1.50;1.40;;;5.20;73.30;;;;;;4989267;28;20019;-83
2021/03/06 10:57:21;;;;;;;2.55;1.65;;;5.30;73.30;;;;;;4986774;28;20030;-85
2021/03/06 10:59:49;;;;;;;2.42;1.55;;;5.30;73.30;;;;;;4977159;28;20115;-84
2021/03/06 11:02:29;;;;;;;2.80;1.80;;;5.40;73.90;;;;;;4993069;28;20025;-84
2021/03/06 11:05:14;;;;;;;1.50;1.40;;;5.40;73.40;;;;;;4998891;28;20147;-85
2021/03/06 11:07:40;;;;;;;1.60;1.50;;;5.40;73.40;;;;;;4972631;28;20045;-84
2021/03/06 11:10:06;;;;;;;2.00;1.70;;;5.50;73.30;;;;;;4975200;28;20050;-84
2021/03/06 11:12:32;;;;;;;2.45;1.60;;;5.60;73.40;;;;;;4991590;28;20026;-82
2021/03/06 11:15:12;;;;;;;1.83;1.73;;;5.60;73.40;;;;;;4959191;28;20084;-88
2021/03/06 11:17:43;;;;;;;2.95;1.90;;;5.70;73.50;;;;;;4974817;28;20076;-88
2021/03/06 11:20:11;;;;;;;3.00;1.77;;;5.70;73.40;;;;;;4992396;28;20391;-89
2021/03/06 11:22:38;;;;;;;1.60;1.50;;;5.70;73.40;;;;;;4990746;28;20440;-88
2021/03/06 11:25:07;;;;;;;1.77;1.48;;;5.80;73.40;;;;;;4991068;28;20035;-88
2021/03/06 11:27:53;;;;;;;1.50;1.33;;;5.90;73.40;;;;;;4991917;28;20033;-88
2021/03/06 11:30:23;;;;;;;2.38;1.60;;;5.90;73.50;;;;;;4992135;28;20026;-88
2021/03/06 11:32:49;;;;;;;1.65;1.55;;;6.00;73.40;;;;;;4993362;28;20023;-86
2021/03/06 11:35:16;;;;;;;1.60;1.50;;;6.00;73.40;;;;;;4976269;28;20041;-92
2021/03/06 11:37:43;;;;;;;1.83;1.30;;;6.10;73.50;;;;;;4976518;28;20077;-85
2021/03/06 11:40:10;;;;;;;1.50;1.40;;;6.10;73.60;;;;;;4975510;28;20550;-85
2021/03/06 11:42:37;;;;;;;1.50;1.40;;;6.20;73.60;;;;;;4976247;28;20468;-86
2021/03/06 11:45:05;;;;;;;1.50;1.40;;;6.30;73.60;;;;;;4975863;28;20030;-86
2021/03/06 11:47:31;;;;;;;1.50;1.40;;;6.30;73.70;;;;;;4992788;28;20132;-87
2021/03/06 11:49:56;;;;;;;1.20;1.20;;;6.40;73.70;;;;;;4993258;28;20053;-86
2021/03/06 11:52:22;;;;;;;1.65;1.50;;;6.40;73.80;;;;;;4979047;28;20113;-87
2021/03/06 11:54:48;;;;;;;1.30;1.20;;;6.50;73.90;;;;;;4960334;28;20378;-85
2021/03/06 11:57:13;;;;;;;1.40;1.30;;;6.50;74.60;;;;;;4993555;28;20085;-86
2021/03/06 11:59:39;;;;;;;1.60;1.50;;;6.60;74.00;;;;;;4992712;28;20061;-86
2021/03/06 12:02:05;;;;;;;1.60;1.50;;;6.70;74.00;;;;;;4961115;28;20101;-86
2021/03/06 12:04:31;;;;;;;1.20;1.20;;;6.70;74.10;;;;;;4979983;28;20065;-86
2021/03/06 12:06:56;;;;;;;1.48;1.38;;;6.70;74.10;;;;;;4980216;28;20034;-84
2021/03/06 12:09:22;;;;;;;1.60;1.25;;;6.80;74.20;;;;;;4996127;28;20470;-88
2021/03/06 12:11:48;;;;;;;2.33;1.58;;;6.80;74.20;;;;;;4995221;28;20116;-82
2021/03/06 12:14:14;;;;;;;1.60;1.50;;;6.90;74.30;;;;;;4978379;28;20038;-81
2021/03/06 12:16:39;;;;;;;2.40;1.60;;;7.00;74.30;;;;;;4995750;28;20035;-86
2021/03/06 12:19:05;;;;;;;1.60;1.50;;;7.00;74.30;;;;;;4979673;28;20439;-84
2021/03/06 12:21:31;;;;;;;2.80;1.35;;;7.10;74.30;;;;;;4995814;28;20034;-84
2021/03/06 12:23:57;;;;;;;1.30;1.30;;;7.10;74.30;;;;;;4963849;28;20019;-83
2021/03/06 12:26:23;;;;;;;2.38;1.70;;;7.10;74.40;;;;;;4968144;28;20049;-86
2021/03/06 12:28:49;;;;;;;1.83;1.50;;;7.20;74.50;;;;;;4979811;28;20033;-86
2021/03/06 12:31:15;;;;;;;2.75;1.40;;;7.20;74.40;;;;;;4979612;28;20022;-85
2021/03/06 12:33:41;;;;;;;1.48;1.30;;;7.30;74.50;;;;;;4996264;28;20386;-85
2021/03/06 12:36:07;;;;;;;1.63;1.40;;;7.30;74.50;;;;;;4979862;28;20482;-85
2021/03/06 12:38:33;;;;;;;1.38;1.27;;;7.40;75.20;;;;;;4979479;28;20038;-86
2021/03/06 12:40:58;;;;;;;1.40;1.30;;;7.40;74.50;;;;;;4980175;28;20050;-87
2021/03/06 12:43:25;;;;;;;1.42;1.33;;;7.50;74.60;;;;;;4996253;28;20029;-87
2021/03/06 12:45:50;;;;;;;1.35;1.30;;;7.50;74.60;;;;;;4970614;28;20042;-84
2021/03/06 12:48:16;;;;;;;1.25;1.20;;;7.60;74.60;;;;;;4977356;28;20018;-89
2021/03/06 12:50:44;;;;;;;1.80;1.50;;;7.60;74.60;;;;;;4980894;28;20467;-89
2021/03/06 12:53:10;;;;;;;1.52;1.42;;;7.70;74.60;;;;;;4991291;28;20041;-88
2021/03/06 12:55:36;;;;;;;1.50;1.40;;;7.70;74.60;;;;;;4981046;28;20034;-86
2021/03/06 12:58:02;;;;;;;1.40;1.30;;;7.80;74.60;;;;;;4988142;28;20090;-86
2021/03/06 13:00:29;;;;;;;1.60;1.50;;;7.80;74.60;;;;;;4965862;28;20043;-86
2021/03/06 13:02:58;;;;;;;2.90;1.65;;;7.80;74.60;;;;;;4979972;28;20094;-91
2021/03/06 13:05:25;;;;;;;1.77;1.60;;;7.90;74.60;;;;;;4996397;28;20097;-89
2021/03/06 13:07:51;;;;;;;1.70;1.45;;;8.00;74.70;;;;;;4962169;28;20081;-87
2021/03/06 13:10:19;;;;;;;3.45;1.40;;;8.00;74.60;;;;;;4978883;28;20051;-89